Airfield :
LOGIN :

Register | Disclaimer

   EN    FR    IT 

 










Legend :    VFR   Marginal VFR   IFR   Intensive IFR   Very Intensive IFR
Visi :
Ceiling :
>= 8 km
>= 3000ft
5 to 8 km
1000 to 3000 ft
1500m to 5 km
500 to 1000 ft
800 to 1500m
200 to 500 ft
< 800m
< 200 ft
Symbols :   Thunderstorms  Fog  Heavy snow  Heavy precipitations  Wind > 20 kt
SIGMETs :     Misc.  Thunderstorms  Icing  Turbulence  Mountain Waves  Volcanic Ashes







- Airport Elevation : 424 ft
- IATA code : QGY


LHPR - Györ Per

CURRENT METAR :
  • 251045Z 10006KT 050V210 9999 BKN030 17/11 Q1023 RMK BLU

EXPIRED METARs :
  • 251015Z 14005KT 100V170 9999 BKN030 17/09 Q1023 RMK BLU
  • 250945Z 13007KT 090V180 9999 BKN026 SCT200 17/11 Q1023 RMK BLU
  • 250915Z 12007KT 080V190 9999 SCT023 SCT200 16/10 Q1023 RMK BLU
  • 250845Z 14005KT 070V190 9999 SCT020 SCT200 16/10 Q1023 RMK BLU
  • 250815Z 10004KT 050V150 CAVOK 15/12 Q1023 RMK BLU

TAF TAF LHPR
Valid from the 25 at 09:00 until the 25 at 18:00 UTC


250815Z 2509/2518 11006KT CAVOK
BECMG 2509/2511 SCT030 SCT100
BECMG 2515/2518 CAVOK
No reported NOTAMs for that airfield.



MET'MAP, your aeronautical weather chart ! - Copyright ORBIFLY December 2007 - Disclaimer

ORBIFLY MET'MAP TEAM :

Programming & Development : Alexandra Zaïnal
Concept & Development : Baudouin d'Aumeries
Co-Development & Prog : Marc-Olivier Méhu
Technical & hardware support : Manuel Goepfert

Contact : metmap@orbifly.com




SOURCES & CREDITS :

   NOAA